sensor_id;sensor_type;location;lat;lon;timestamp;temperature;humidity
36458;DHT22;22480;50.546;12.292;2023-05-08T00:01:33;6.40;99.90
36458;DHT22;22480;50.546;12.292;2023-05-08T00:03:59;6.50;99.90
36458;DHT22;22480;50.546;12.292;2023-05-08T00:06:24;6.60;99.90
36458;DHT22;22480;50.546;12.292;2023-05-08T00:08:52;6.60;99.90
36458;DHT22;22480;50.546;12.292;2023-05-08T00:11:18;6.70;99.90
36458;DHT22;22480;50.546;12.292;2023-05-08T00:13:44;6.70;99.90
36458;DHT22;22480;50.546;12.292;2023-05-08T00:16:10;6.70;99.90
36458;DHT22;22480;50.546;12.292;2023-05-08T00:18:37;6.80;99.90
36458;DHT22;22480;50.546;12.292;2023-05-08T00:21:04;6.90;99.90
36458;DHT22;22480;50.546;12.292;2023-05-08T00:23:29;6.90;99.90
36458;DHT22;22480;50.546;12.292;2023-05-08T00:25:55;6.80;99.90
36458;DHT22;22480;50.546;12.292;2023-05-08T00:28:21;6.80;99.90
36458;DHT22;22480;50.546;12.292;2023-05-08T00:30:47;6.70;99.90
36458;DHT22;22480;50.546;12.292;2023-05-08T00:33:13;6.70;99.90
36458;DHT22;22480;50.546;12.292;2023-05-08T00:35:38;6.70;99.90
36458;DHT22;22480;50.546;12.292;2023-05-08T00:38:06;6.50;99.90
36458;DHT22;22480;50.546;12.292;2023-05-08T00:40:32;6.50;99.90
36458;DHT22;22480;50.546;12.292;2023-05-08T00:42:58;6.40;99.90
36458;DHT22;22480;50.546;12.292;2023-05-08T00:45:23;6.30;99.90
36458;DHT22;22480;50.546;12.292;2023-05-08T00:47:50;6.30;99.90
36458;DHT22;22480;50.546;12.292;2023-05-08T00:50:17;6.20;99.90
36458;DHT22;22480;50.546;12.292;2023-05-08T00:52:43;6.10;99.90
36458;DHT22;22480;50.546;12.292;2023-05-08T00:55:09;6.10;99.90
36458;DHT22;22480;50.546;12.292;2023-05-08T00:57:35;6.00;99.90
36458;DHT22;22480;50.546;12.292;2023-05-08T01:00:02;5.90;99.90
36458;DHT22;22480;50.546;12.292;2023-05-08T01:02:29;5.90;99.90
36458;DHT22;22480;50.546;12.292;2023-05-08T01:04:56;5.80;99.90
36458;DHT22;22480;50.546;12.292;2023-05-08T01:07:22;5.70;99.90
36458;DHT22;22480;50.546;12.292;2023-05-08T01:09:48;5.70;99.90
36458;DHT22;22480;50.546;12.292;2023-05-08T01:12:23;5.60;99.90
36458;DHT22;22480;50.546;12.292;2023-05-08T01:35:02;5.20;99.90
36458;DHT22;22480;50.546;12.292;2023-05-08T01:37:31;5.10;99.90
36458;DHT22;22480;50.546;12.292;2023-05-08T01:42:49;5.00;99.90
36458;DHT22;22480;50.546;12.292;2023-05-08T01:45:30;4.90;99.90
36458;DHT22;22480;50.546;12.292;2023-05-08T01:48:03;4.90;99.90
36458;DHT22;22480;50.546;12.292;2023-05-08T01:50:34;4.90;99.90
36458;DHT22;22480;50.546;12.292;2023-05-08T01:53:33;4.90;99.90
36458;DHT22;22480;50.546;12.292;2023-05-08T01:56:09;4.90;99.90
36458;DHT22;22480;50.546;12.292;2023-05-08T01:58:36;4.90;99.90
36458;DHT22;22480;50.546;12.292;2023-05-08T02:01:03;4.90;99.90
36458;DHT22;22480;50.546;12.292;2023-05-08T02:03:30;4.80;99.90
36458;DHT22;22480;50.546;12.292;2023-05-08T02:05:58;4.80;99.90
36458;DHT22;22480;50.546;12.292;2023-05-08T02:08:25;4.70;99.90
36458;DHT22;22480;50.546;12.292;2023-05-08T02:10:53;4.80;99.90
36458;DHT22;22480;50.546;12.292;2023-05-08T02:13:21;4.80;99.90
36458;DHT22;22480;50.546;12.292;2023-05-08T02:15:49;4.70;99.90
36458;DHT22;22480;50.546;12.292;2023-05-08T02:18:17;4.70;99.90
36458;DHT22;22480;50.546;12.292;2023-05-08T02:20:45;4.70;99.90
36458;DHT22;22480;50.546;12.292;2023-05-08T02:23:12;4.60;99.90
36458;DHT22;22480;50.546;12.292;2023-05-08T02:25:39;4.50;99.90
36458;DHT22;22480;50.546;12.292;2023-05-08T02:28:06;4.50;99.90
36458;DHT22;22480;50.546;12.292;2023-05-08T02:30:32;4.50;99.90
36458;DHT22;22480;50.546;12.292;2023-05-08T02:33:00;4.60;99.90
36458;DHT22;22480;50.546;12.292;2023-05-08T02:35:26;4.70;99.90
36458;DHT22;22480;50.546;12.292;2023-05-08T02:37:55;4.80;99.90
36458;DHT22;22480;50.546;12.292;2023-05-08T02:40:24;4.80;99.90
36458;DHT22;22480;50.546;12.292;2023-05-08T02:42:51;4.80;99.90
36458;DHT22;22480;50.546;12.292;2023-05-08T02:45:17;4.80;99.90
36458;DHT22;22480;50.546;12.292;2023-05-08T02:53:45;4.60;99.90
36458;DHT22;22480;50.546;12.292;2023-05-08T02:56:31;4.60;99.90
36458;DHT22;22480;50.546;12.292;2023-05-08T02:59:13;4.50;99.90
36458;DHT22;22480;50.546;12.292;2023-05-08T03:01:58;4.40;99.90
36458;DHT22;22480;50.546;12.292;2023-05-08T03:04:35;4.20;99.90
36458;DHT22;22480;50.546;12.292;2023-05-08T03:07:02;4.20;99.90
36458;DHT22;22480;50.546;12.292;2023-05-08T03:09:38;4.30;99.90
36458;DHT22;22480;50.546;12.292;2023-05-08T03:12:10;4.30;99.90
36458;DHT22;22480;50.546;12.292;2023-05-08T03:14:51;4.30;99.90
36458;DHT22;22480;50.546;12.292;2023-05-08T03:17:19;4.30;99.90
36458;DHT22;22480;50.546;12.292;2023-05-08T03:19:49;4.40;99.90
36458;DHT22;22480;50.546;12.292;2023-05-08T03:22:18;4.30;99.90
36458;DHT22;22480;50.546;12.292;2023-05-08T03:24:45;4.30;99.90
36458;DHT22;22480;50.546;12.292;2023-05-08T03:27:12;4.20;99.90
36458;DHT22;22480;50.546;12.292;2023-05-08T03:29:39;4.20;99.90
36458;DHT22;22480;50.546;12.292;2023-05-08T03:32:07;4.10;99.90
36458;DHT22;22480;50.546;12.292;2023-05-08T03:34:35;4.20;99.90
36458;DHT22;22480;50.546;12.292;2023-05-08T03:37:00;4.20;99.90
36458;DHT22;22480;50.546;12.292;2023-05-08T03:39:27;4.30;99.90
36458;DHT22;22480;50.546;12.292;2023-05-08T03:41:54;4.30;99.90
36458;DHT22;22480;50.546;12.292;2023-05-08T03:44:21;4.30;99.90
36458;DHT22;22480;50.546;12.292;2023-05-08T03:46:48;4.40;99.90
36458;DHT22;22480;50.546;12.292;2023-05-08T03:49:16;4.40;99.90
36458;DHT22;22480;50.546;12.292;2023-05-08T03:51:42;4.40;99.90
36458;DHT22;22480;50.546;12.292;2023-05-08T03:54:08;4.60;99.90
36458;DHT22;22480;50.546;12.292;2023-05-08T03:56:35;4.70;99.90
36458;DHT22;22480;50.546;12.292;2023-05-08T03:59:23;4.70;99.90
36458;DHT22;22480;50.546;12.292;2023-05-08T04:01:58;4.80;99.90
36458;DHT22;22480;50.546;12.292;2023-05-08T04:04:40;4.90;99.90
36458;DHT22;22480;50.546;12.292;2023-05-08T04:07:14;5.00;99.90
36458;DHT22;22480;50.546;12.292;2023-05-08T04:12:39;5.20;99.90
36458;DHT22;22480;50.546;12.292;2023-05-08T04:15:09;5.30;99.90
36458;DHT22;22480;50.546;12.292;2023-05-08T04:20:03;5.40;99.90
36458;DHT22;22480;50.546;12.292;2023-05-08T04:22:32;5.50;99.90
36458;DHT22;22480;50.546;12.292;2023-05-08T04:25:03;5.70;99.90
36458;DHT22;22480;50.546;12.292;2023-05-08T04:27:31;5.80;99.90
36458;DHT22;22480;50.546;12.292;2023-05-08T04:29:57;5.90;99.90
36458;DHT22;22480;50.546;12.292;2023-05-08T04:32:23;6.00;99.90
36458;DHT22;22480;50.546;12.292;2023-05-08T04:34:50;6.10;99.90
36458;DHT22;22480;50.546;12.292;2023-05-08T04:37:26;6.20;99.90
36458;DHT22;22480;50.546;12.292;2023-05-08T04:39:54;6.30;99.90
36458;DHT22;22480;50.546;12.292;2023-05-08T04:42:20;6.50;99.90
36458;DHT22;22480;50.546;12.292;2023-05-08T04:44:46;6.60;99.90
36458;DHT22;22480;50.546;12.292;2023-05-08T04:47:13;6.80;99.90
36458;DHT22;22480;50.546;12.292;2023-05-08T04:49:39;6.90;99.90
36458;DHT22;22480;50.546;12.292;2023-05-08T04:52:05;7.00;99.90
36458;DHT22;22480;50.546;12.292;2023-05-08T04:54:32;7.20;99.90
36458;DHT22;22480;50.546;12.292;2023-05-08T04:56:58;7.40;99.90
36458;DHT22;22480;50.546;12.292;2023-05-08T04:59:24;7.70;99.90
36458;DHT22;22480;50.546;12.292;2023-05-08T05:01:50;8.10;99.90
36458;DHT22;22480;50.546;12.292;2023-05-08T05:04:16;8.40;99.90
36458;DHT22;22480;50.546;12.292;2023-05-08T05:06:42;8.60;99.90
36458;DHT22;22480;50.546;12.292;2023-05-08T05:09:08;8.80;99.90
36458;DHT22;22480;50.546;12.292;2023-05-08T05:11:35;9.00;99.90
36458;DHT22;22480;50.546;12.292;2023-05-08T05:14:00;9.30;99.90
36458;DHT22;22480;50.546;12.292;2023-05-08T05:16:26;9.60;99.90
36458;DHT22;22480;50.546;12.292;2023-05-08T05:18:52;10.10;99.90
36458;DHT22;22480;50.546;12.292;2023-05-08T05:21:19;10.60;99.90
36458;DHT22;22480;50.546;12.292;2023-05-08T05:23:44;11.00;99.90
36458;DHT22;22480;50.546;12.292;2023-05-08T05:26:11;11.30;99.90
36458;DHT22;22480;50.546;12.292;2023-05-08T05:28:37;11.30;99.90
36458;DHT22;22480;50.546;12.292;2023-05-08T05:31:04;11.30;99.90
36458;DHT22;22480;50.546;12.292;2023-05-08T05:33:30;11.40;99.90
36458;DHT22;22480;50.546;12.292;2023-05-08T05:35:56;11.30;99.90
36458;DHT22;22480;50.546;12.292;2023-05-08T05:38:22;11.40;99.90
36458;DHT22;22480;50.546;12.292;2023-05-08T05:40:48;11.50;99.90
36458;DHT22;22480;50.546;12.292;2023-05-08T05:43:14;11.70;99.90
36458;DHT22;22480;50.546;12.292;2023-05-08T05:45:40;11.70;99.90
36458;DHT22;22480;50.546;12.292;2023-05-08T05:48:06;11.80;99.90
36458;DHT22;22480;50.546;12.292;2023-05-08T05:50:33;12.10;99.90
36458;DHT22;22480;50.546;12.292;2023-05-08T05:52:58;12.50;99.90
36458;DHT22;22480;50.546;12.292;2023-05-08T05:55:26;12.80;99.90
36458;DHT22;22480;50.546;12.292;2023-05-08T05:57:52;13.10;99.90
36458;DHT22;22480;50.546;12.292;2023-05-08T06:00:18;13.60;99.90
36458;DHT22;22480;50.546;12.292;2023-05-08T06:02:49;13.80;99.90
36458;DHT22;22480;50.546;12.292;2023-05-08T06:05:15;14.00;99.90
36458;DHT22;22480;50.546;12.292;2023-05-08T06:07:43;14.30;99.90
36458;DHT22;22480;50.546;12.292;2023-05-08T06:10:09;14.70;99.90
36458;DHT22;22480;50.546;12.292;2023-05-08T06:12:35;15.00;99.90
36458;DHT22;22480;50.546;12.292;2023-05-08T06:15:01;14.90;99.90
36458;DHT22;22480;50.546;12.292;2023-05-08T06:17:27;15.10;96.30
36458;DHT22;22480;50.546;12.292;2023-05-08T06:19:53;15.30;98.80
36458;DHT22;22480;50.546;12.292;2023-05-08T06:22:21;15.40;91.80
36458;DHT22;22480;50.546;12.292;2023-05-08T06:24:48;15.70;92.80
36458;DHT22;22480;50.546;12.292;2023-05-08T06:27:14;16.00;88.20
36458;DHT22;22480;50.546;12.292;2023-05-08T06:29:40;16.10;90.60
36458;DHT22;22480;50.546;12.292;2023-05-08T06:32:05;16.40;91.40
36458;DHT22;22480;50.546;12.292;2023-05-08T06:34:31;16.60;91.20
36458;DHT22;22480;50.546;12.292;2023-05-08T06:36:57;16.90;81.70
36458;DHT22;22480;50.546;12.292;2023-05-08T06:39:23;17.10;78.00
36458;DHT22;22480;50.546;12.292;2023-05-08T06:41:48;16.70;86.60
36458;DHT22;22480;50.546;12.292;2023-05-08T06:44:23;16.80;85.90
36458;DHT22;22480;50.546;12.292;2023-05-08T06:46:48;17.10;88.90
36458;DHT22;22480;50.546;12.292;2023-05-08T06:49:14;17.40;74.70
36458;DHT22;22480;50.546;12.292;2023-05-08T06:51:40;17.20;74.50
36458;DHT22;22480;50.546;12.292;2023-05-08T06:54:06;17.00;80.50
36458;DHT22;22480;50.546;12.292;2023-05-08T06:56:33;16.70;78.30
36458;DHT22;22480;50.546;12.292;2023-05-08T06:58:59;16.70;87.10
36458;DHT22;22480;50.546;12.292;2023-05-08T07:01:25;16.90;83.50
36458;DHT22;22480;50.546;12.292;2023-05-08T07:03:52;17.00;81.60
36458;DHT22;22480;50.546;12.292;2023-05-08T07:06:18;17.40;79.10
36458;DHT22;22480;50.546;12.292;2023-05-08T07:08:43;17.60;75.70
36458;DHT22;22480;50.546;12.292;2023-05-08T07:11:09;17.50;74.20
36458;DHT22;22480;50.546;12.292;2023-05-08T07:13:35;17.40;73.30
36458;DHT22;22480;50.546;12.292;2023-05-08T07:16:01;17.30;76.30
36458;DHT22;22480;50.546;12.292;2023-05-08T07:18:27;17.50;70.70
36458;DHT22;22480;50.546;12.292;2023-05-08T07:20:53;17.40;76.80
36458;DHT22;22480;50.546;12.292;2023-05-08T07:23:19;17.50;72.30
36458;DHT22;22480;50.546;12.292;2023-05-08T07:25:44;16.90;74.00
36458;DHT22;22480;50.546;12.292;2023-05-08T07:28:10;16.40;78.50
36458;DHT22;22480;50.546;12.292;2023-05-08T07:30:36;16.30;79.40
36458;DHT22;22480;50.546;12.292;2023-05-08T07:33:02;16.40;77.60
36458;DHT22;22480;50.546;12.292;2023-05-08T07:35:28;16.70;75.80
36458;DHT22;22480;50.546;12.292;2023-05-08T07:37:54;16.70;73.60
36458;DHT22;22480;50.546;12.292;2023-05-08T07:40:19;16.90;74.60
36458;DHT22;22480;50.546;12.292;2023-05-08T07:42:45;16.90;72.70
36458;DHT22;22480;50.546;12.292;2023-05-08T07:45:12;16.70;74.80
36458;DHT22;22480;50.546;12.292;2023-05-08T07:47:38;16.80;77.90
36458;DHT22;22480;50.546;12.292;2023-05-08T07:50:12;17.00;77.40
36458;DHT22;22480;50.546;12.292;2023-05-08T07:52:38;17.30;75.60
36458;DHT22;22480;50.546;12.292;2023-05-08T07:55:04;17.20;75.40
36458;DHT22;22480;50.546;12.292;2023-05-08T07:57:36;17.50;72.60
36458;DHT22;22480;50.546;12.292;2023-05-08T08:00:03;17.80;71.10
36458;DHT22;22480;50.546;12.292;2023-05-08T08:02:39;18.00;72.80
36458;DHT22;22480;50.546;12.292;2023-05-08T08:05:05;17.80;73.20
36458;DHT22;22480;50.546;12.292;2023-05-08T08:07:31;17.80;71.10
36458;DHT22;22480;50.546;12.292;2023-05-08T08:09:57;18.00;74.10
36458;DHT22;22480;50.546;12.292;2023-05-08T08:12:23;18.40;70.80
36458;DHT22;22480;50.546;12.292;2023-05-08T08:14:49;18.70;70.00
36458;DHT22;22480;50.546;12.292;2023-05-08T08:17:15;18.60;68.90
36458;DHT22;22480;50.546;12.292;2023-05-08T08:19:41;18.70;72.10
36458;DHT22;22480;50.546;12.292;2023-05-08T08:22:07;18.80;72.30
36458;DHT22;22480;50.546;12.292;2023-05-08T08:24:32;19.10;71.60
36458;DHT22;22480;50.546;12.292;2023-05-08T08:26:58;19.50;72.60
36458;DHT22;22480;50.546;12.292;2023-05-08T08:29:24;19.70;68.60
36458;DHT22;22480;50.546;12.292;2023-05-08T08:31:50;20.00;67.60
36458;DHT22;22480;50.546;12.292;2023-05-08T08:34:16;20.30;66.30
36458;DHT22;22480;50.546;12.292;2023-05-08T08:36:41;19.90;68.50
36458;DHT22;22480;50.546;12.292;2023-05-08T08:39:07;19.50;66.50
36458;DHT22;22480;50.546;12.292;2023-05-08T08:41:33;19.10;69.40
36458;DHT22;22480;50.546;12.292;2023-05-08T08:43:59;19.10;71.10
36458;DHT22;22480;50.546;12.292;2023-05-08T08:46:26;19.20;70.30
36458;DHT22;22480;50.546;12.292;2023-05-08T08:48:54;19.00;68.10
36458;DHT22;22480;50.546;12.292;2023-05-08T08:51:27;19.00;68.70
36458;DHT22;22480;50.546;12.292;2023-05-08T08:54:08;19.10;68.80
36458;DHT22;22480;50.546;12.292;2023-05-08T08:56:35;19.20;67.20
36458;DHT22;22480;50.546;12.292;2023-05-08T08:59:04;19.40;66.80
36458;DHT22;22480;50.546;12.292;2023-05-08T09:01:33;19.30;70.50
36458;DHT22;22480;50.546;12.292;2023-05-08T09:04:01;19.30;65.50
36458;DHT22;22480;50.546;12.292;2023-05-08T09:06:27;19.50;63.80
36458;DHT22;22480;50.546;12.292;2023-05-08T09:08:57;19.90;65.10
36458;DHT22;22480;50.546;12.292;2023-05-08T09:11:26;20.70;63.40
36458;DHT22;22480;50.546;12.292;2023-05-08T09:13:54;21.10;60.50
36458;DHT22;22480;50.546;12.292;2023-05-08T09:16:21;21.40;59.90
36458;DHT22;22480;50.546;12.292;2023-05-08T09:18:46;21.30;59.50
36458;DHT22;22480;50.546;12.292;2023-05-08T09:21:13;21.20;59.30
36458;DHT22;22480;50.546;12.292;2023-05-08T09:23:58;21.40;58.40
36458;DHT22;22480;50.546;12.292;2023-05-08T09:26:42;21.60;57.80
36458;DHT22;22480;50.546;12.292;2023-05-08T09:29:16;22.10;58.80
36458;DHT22;22480;50.546;12.292;2023-05-08T09:31:46;22.60;57.10
36458;DHT22;22480;50.546;12.292;2023-05-08T09:34:25;22.60;55.80
36458;DHT22;22480;50.546;12.292;2023-05-08T09:37:11;22.60;57.30
36458;DHT22;22480;50.546;12.292;2023-05-08T09:39:38;22.10;56.90
36458;DHT22;22480;50.546;12.292;2023-05-08T09:42:05;22.10;59.20
36458;DHT22;22480;50.546;12.292;2023-05-08T09:44:50;21.90;60.70
36458;DHT22;22480;50.546;12.292;2023-05-08T09:47:24;21.60;59.60
36458;DHT22;22480;50.546;12.292;2023-05-08T09:50:07;21.40;59.80
36458;DHT22;22480;50.546;12.292;2023-05-08T09:52:34;21.70;62.40
36458;DHT22;22480;50.546;12.292;2023-05-08T09:57:29;22.60;58.30
36458;DHT22;22480;50.546;12.292;2023-05-08T10:00:11;22.10;57.60
36458;DHT22;22480;50.546;12.292;2023-05-08T10:02:39;22.00;61.10
36458;DHT22;22480;50.546;12.292;2023-05-08T10:05:28;22.10;59.90
36458;DHT22;22480;50.546;12.292;2023-05-08T10:07:56;22.30;65.00
36458;DHT22;22480;50.546;12.292;2023-05-08T10:10:23;22.40;59.00
36458;DHT22;22480;50.546;12.292;2023-05-08T10:12:52;22.10;61.90
36458;DHT22;22480;50.546;12.292;2023-05-08T10:15:20;22.40;60.90
36458;DHT22;22480;50.546;12.292;2023-05-08T10:17:53;22.40;61.30
36458;DHT22;22480;50.546;12.292;2023-05-08T10:20:21;22.30;59.90
36458;DHT22;22480;50.546;12.292;2023-05-08T10:22:50;22.40;60.30
36458;DHT22;22480;50.546;12.292;2023-05-08T10:25:19;22.10;62.30
36458;DHT22;22480;50.546;12.292;2023-05-08T10:28:05;22.00;63.30
36458;DHT22;22480;50.546;12.292;2023-05-08T10:30:33;22.20;58.60
36458;DHT22;22480;50.546;12.292;2023-05-08T10:33:09;22.50;61.30
36458;DHT22;22480;50.546;12.292;2023-05-08T10:35:36;23.00;60.80
36458;DHT22;22480;50.546;12.292;2023-05-08T10:38:03;22.70;55.70
36458;DHT22;22480;50.546;12.292;2023-05-08T10:40:29;23.00;58.80
36458;DHT22;22480;50.546;12.292;2023-05-08T10:42:56;23.60;58.90
36458;DHT22;22480;50.546;12.292;2023-05-08T10:45:23;23.90;55.10
36458;DHT22;22480;50.546;12.292;2023-05-08T10:48:20;23.20;55.40
36458;DHT22;22480;50.546;12.292;2023-05-08T10:51:13;23.10;55.90
36458;DHT22;22480;50.546;12.292;2023-05-08T10:53:50;23.20;57.20
36458;DHT22;22480;50.546;12.292;2023-05-08T10:56:16;23.20;59.30
36458;DHT22;22480;50.546;12.292;2023-05-08T10:58:42;23.70;55.80
36458;DHT22;22480;50.546;12.292;2023-05-08T11:03:42;23.80;54.00
36458;DHT22;22480;50.546;12.292;2023-05-08T11:06:08;23.60;54.30
36458;DHT22;22480;50.546;12.292;2023-05-08T11:08:51;23.50;56.10
36458;DHT22;22480;50.546;12.292;2023-05-08T11:11:27;23.40;57.40
36458;DHT22;22480;50.546;12.292;2023-05-08T11:17:07;23.40;60.00
36458;DHT22;22480;50.546;12.292;2023-05-08T11:19:33;23.40;55.60
36458;DHT22;22480;50.546;12.292;2023-05-08T11:22:21;23.30;56.80
36458;DHT22;22480;50.546;12.292;2023-05-08T11:25:00;23.00;54.50
36458;DHT22;22480;50.546;12.292;2023-05-08T11:28:21;22.70;58.20
36458;DHT22;22480;50.546;12.292;2023-05-08T11:30:34;22.80;57.60
36458;DHT22;22480;50.546;12.292;2023-05-08T11:35:56;22.90;55.10
36458;DHT22;22480;50.546;12.292;2023-05-08T11:38:34;23.60;56.10
36458;DHT22;22480;50.546;12.292;2023-05-08T11:41:18;24.90;54.00
36458;DHT22;22480;50.546;12.292;2023-05-08T11:46:20;24.60;50.30
36458;DHT22;22480;50.546;12.292;2023-05-08T11:48:46;23.90;52.20
36458;DHT22;22480;50.546;12.292;2023-05-08T11:51:15;24.10;50.60
36458;DHT22;22480;50.546;12.292;2023-05-08T11:53:42;24.50;49.30
36458;DHT22;22480;50.546;12.292;2023-05-08T11:56:08;25.00;47.20
36458;DHT22;22480;50.546;12.292;2023-05-08T11:58:34;26.50;52.00
36458;DHT22;22480;50.546;12.292;2023-05-08T12:01:01;27.60;48.50
36458;DHT22;22480;50.546;12.292;2023-05-08T12:03:28;28.30;47.50
36458;DHT22;22480;50.546;12.292;2023-05-08T12:05:57;29.10;41.00
36458;DHT22;22480;50.546;12.292;2023-05-08T12:08:24;29.30;38.90
36458;DHT22;22480;50.546;12.292;2023-05-08T12:10:56;29.10;42.00
36458;DHT22;22480;50.546;12.292;2023-05-08T12:13:26;29.40;39.30
36458;DHT22;22480;50.546;12.292;2023-05-08T12:15:54;29.00;39.00
36458;DHT22;22480;50.546;12.292;2023-05-08T12:18:21;29.00;42.30
36458;DHT22;22480;50.546;12.292;2023-05-08T12:20:51;28.60;40.10
36458;DHT22;22480;50.546;12.292;2023-05-08T12:23:18;28.70;40.20
36458;DHT22;22480;50.546;12.292;2023-05-08T12:25:44;29.00;39.70
36458;DHT22;22480;50.546;12.292;2023-05-08T12:28:10;28.90;38.60
36458;DHT22;22480;50.546;12.292;2023-05-08T12:30:35;28.50;39.70
36458;DHT22;22480;50.546;12.292;2023-05-08T12:33:03;27.30;37.90
36458;DHT22;22480;50.546;12.292;2023-05-08T12:35:30;27.10;41.30
36458;DHT22;22480;50.546;12.292;2023-05-08T12:38:00;27.30;38.30
36458;DHT22;22480;50.546;12.292;2023-05-08T12:40:30;27.20;42.00
36458;DHT22;22480;50.546;12.292;2023-05-08T12:42:58;27.30;42.70
36458;DHT22;22480;50.546;12.292;2023-05-08T12:45:30;27.60;42.10
36458;DHT22;22480;50.546;12.292;2023-05-08T12:48:12;27.20;39.50
36458;DHT22;22480;50.546;12.292;2023-05-08T12:50:44;26.70;38.20
36458;DHT22;22480;50.546;12.292;2023-05-08T12:53:12;26.10;39.60
36458;DHT22;22480;50.546;12.292;2023-05-08T12:55:39;25.00;41.00
36458;DHT22;22480;50.546;12.292;2023-05-08T12:58:11;24.60;43.00
36458;DHT22;22480;50.546;12.292;2023-05-08T13:00:47;24.20;42.50
36458;DHT22;22480;50.546;12.292;2023-05-08T13:03:25;24.10;42.70
36458;DHT22;22480;50.546;12.292;2023-05-08T13:05:52;23.70;40.80
36458;DHT22;22480;50.546;12.292;2023-05-08T13:08:18;23.50;38.30
36458;DHT22;22480;50.546;12.292;2023-05-08T13:13:15;23.50;47.70
36458;DHT22;22480;50.546;12.292;2023-05-08T13:15:41;23.50;42.90
36458;DHT22;22480;50.546;12.292;2023-05-08T13:18:07;23.30;44.30
36458;DHT22;22480;50.546;12.292;2023-05-08T13:20:34;23.10;42.90
36458;DHT22;22480;50.546;12.292;2023-05-08T13:22:59;23.30;47.50
36458;DHT22;22480;50.546;12.292;2023-05-08T13:25:25;23.80;48.90
36458;DHT22;22480;50.546;12.292;2023-05-08T13:27:51;24.50;44.50
36458;DHT22;22480;50.546;12.292;2023-05-08T13:30:17;24.70;44.40
36458;DHT22;22480;50.546;12.292;2023-05-08T13:32:43;25.50;40.40
36458;DHT22;22480;50.546;12.292;2023-05-08T13:35:08;25.80;43.40
36458;DHT22;22480;50.546;12.292;2023-05-08T13:37:34;25.80;41.50
36458;DHT22;22480;50.546;12.292;2023-05-08T13:40:00;25.90;42.00
36458;DHT22;22480;50.546;12.292;2023-05-08T13:42:26;25.80;42.50
36458;DHT22;22480;50.546;12.292;2023-05-08T13:44:51;25.70;41.90
36458;DHT22;22480;50.546;12.292;2023-05-08T13:47:17;25.70;43.60
36458;DHT22;22480;50.546;12.292;2023-05-08T13:49:43;25.70;42.30
36458;DHT22;22480;50.546;12.292;2023-05-08T13:52:11;26.00;40.40
36458;DHT22;22480;50.546;12.292;2023-05-08T13:54:37;26.40;38.70
36458;DHT22;22480;50.546;12.292;2023-05-08T13:57:02;27.70;42.00
36458;DHT22;22480;50.546;12.292;2023-05-08T13:59:28;28.40;38.40
36458;DHT22;22480;50.546;12.292;2023-05-08T14:01:55;28.80;41.40
36458;DHT22;22480;50.546;12.292;2023-05-08T14:04:21;29.80;40.50
36458;DHT22;22480;50.546;12.292;2023-05-08T14:06:47;29.70;37.70
36458;DHT22;22480;50.546;12.292;2023-05-08T14:09:13;29.10;37.80
36458;DHT22;22480;50.546;12.292;2023-05-08T14:11:38;29.80;41.80
36458;DHT22;22480;50.546;12.292;2023-05-08T14:14:04;30.80;40.70
36458;DHT22;22480;50.546;12.292;2023-05-08T14:16:30;30.10;39.90
36458;DHT22;22480;50.546;12.292;2023-05-08T14:18:55;30.10;39.10
36458;DHT22;22480;50.546;12.292;2023-05-08T14:21:21;30.00;39.40
36458;DHT22;22480;50.546;12.292;2023-05-08T14:23:47;29.80;38.50
36458;DHT22;22480;50.546;12.292;2023-05-08T14:26:12;29.40;41.60
36458;DHT22;22480;50.546;12.292;2023-05-08T14:28:38;29.00;39.70
36458;DHT22;22480;50.546;12.292;2023-05-08T14:31:04;28.50;41.30
36458;DHT22;22480;50.546;12.292;2023-05-08T14:33:30;27.70;41.60
36458;DHT22;22480;50.546;12.292;2023-05-08T14:35:55;27.30;44.20
36458;DHT22;22480;50.546;12.292;2023-05-08T14:38:21;26.90;43.40
36458;DHT22;22480;50.546;12.292;2023-05-08T14:40:50;26.50;46.90
36458;DHT22;22480;50.546;12.292;2023-05-08T14:43:16;26.50;45.30
36458;DHT22;22480;50.546;12.292;2023-05-08T14:45:42;26.20;44.40
36458;DHT22;22480;50.546;12.292;2023-05-08T14:48:07;25.70;41.30
36458;DHT22;22480;50.546;12.292;2023-05-08T14:50:33;25.20;43.50
36458;DHT22;22480;50.546;12.292;2023-05-08T14:52:59;24.90;43.50
36458;DHT22;22480;50.546;12.292;2023-05-08T14:55:24;24.30;40.90
36458;DHT22;22480;50.546;12.292;2023-05-08T14:57:50;23.80;43.40
36458;DHT22;22480;50.546;12.292;2023-05-08T15:00:16;23.50;42.50
36458;DHT22;22480;50.546;12.292;2023-05-08T15:02:43;23.40;44.20
36458;DHT22;22480;50.546;12.292;2023-05-08T15:05:09;23.50;43.70
36458;DHT22;22480;50.546;12.292;2023-05-08T15:07:35;23.70;42.50
36458;DHT22;22480;50.546;12.292;2023-05-08T15:10:02;23.70;43.00
36458;DHT22;22480;50.546;12.292;2023-05-08T15:12:28;23.60;44.40
36458;DHT22;22480;50.546;12.292;2023-05-08T15:14:54;23.30;42.60
36458;DHT22;22480;50.546;12.292;2023-05-08T15:17:20;22.90;43.90
36458;DHT22;22480;50.546;12.292;2023-05-08T15:19:45;22.80;44.70
36458;DHT22;22480;50.546;12.292;2023-05-08T15:22:12;22.60;44.60
36458;DHT22;22480;50.546;12.292;2023-05-08T15:24:38;22.30;43.70
36458;DHT22;22480;50.546;12.292;2023-05-08T15:27:04;22.10;44.40
36458;DHT22;22480;50.546;12.292;2023-05-08T15:29:29;22.20;45.50
36458;DHT22;22480;50.546;12.292;2023-05-08T15:31:55;21.90;42.80
36458;DHT22;22480;50.546;12.292;2023-05-08T15:34:21;22.00;43.70
36458;DHT22;22480;50.546;12.292;2023-05-08T15:36:47;22.20;45.00
36458;DHT22;22480;50.546;12.292;2023-05-08T15:39:13;22.20;45.50
36458;DHT22;22480;50.546;12.292;2023-05-08T15:41:38;22.30;44.80
36458;DHT22;22480;50.546;12.292;2023-05-08T15:44:06;22.70;47.00
36458;DHT22;22480;50.546;12.292;2023-05-08T15:46:32;22.80;45.60
36458;DHT22;22480;50.546;12.292;2023-05-08T15:48:58;22.90;44.30
36458;DHT22;22480;50.546;12.292;2023-05-08T15:51:23;23.00;47.40
36458;DHT22;22480;50.546;12.292;2023-05-08T15:53:49;22.90;45.70
36458;DHT22;22480;50.546;12.292;2023-05-08T15:56:20;22.40;46.80
36458;DHT22;22480;50.546;12.292;2023-05-08T15:58:52;21.80;47.00
36458;DHT22;22480;50.546;12.292;2023-05-08T16:01:18;21.30;47.60
36458;DHT22;22480;50.546;12.292;2023-05-08T16:03:44;21.00;50.20
36458;DHT22;22480;50.546;12.292;2023-05-08T16:06:10;20.90;50.60
36458;DHT22;22480;50.546;12.292;2023-05-08T16:08:35;20.70;48.90
36458;DHT22;22480;50.546;12.292;2023-05-08T16:11:01;20.40;50.10
36458;DHT22;22480;50.546;12.292;2023-05-08T16:13:27;20.30;49.50
36458;DHT22;22480;50.546;12.292;2023-05-08T16:15:53;20.00;51.00
36458;DHT22;22480;50.546;12.292;2023-05-08T16:18:19;19.80;50.00